createdAt,value
2018-06-17T00:01:41.615Z,98584.16
2018-06-17T00:04:10.596Z,98583.34
2018-06-17T00:06:39.571Z,98592.45
2018-06-17T00:09:09.456Z,98591.16
2018-06-17T00:11:38.542Z,98595.06
2018-06-17T00:14:07.555Z,98587.69
2018-06-17T00:16:36.536Z,98588.70
2018-06-17T00:19:06.015Z,98591.00
2018-06-17T00:21:35.059Z,98593.25
2018-06-17T00:24:04.056Z,98588.73
2018-06-17T00:26:33.052Z,98586.53
2018-06-17T00:29:02.082Z,98583.66
2018-06-17T00:31:31.050Z,98579.19
2018-06-17T00:34:00.028Z,98577.87
2018-06-17T00:36:29.004Z,98580.40
2018-06-17T00:38:58.060Z,98570.89
2018-06-17T00:41:27.150Z,98572.12
2018-06-17T00:43:56.125Z,98574.31
2018-06-17T00:46:25.152Z,98575.95
2018-06-17T00:48:54.106Z,98574.97
2018-06-17T00:51:23.097Z,98572.20
2018-06-17T00:53:52.052Z,98572.59
2018-06-17T00:56:21.077Z,98563.82
2018-06-17T00:58:50.028Z,98570.39
2018-06-17T01:01:19.104Z,98575.84
2018-06-17T01:03:48.073Z,98572.48
2018-06-17T01:06:17.075Z,98575.22
2018-06-17T01:08:46.042Z,98570.34
2018-06-17T01:11:15.110Z,98570.67
2018-06-17T01:13:44.176Z,98570.42
2018-06-17T01:16:13.131Z,98578.42
2018-06-17T01:18:42.179Z,98582.94
2018-06-17T01:21:12.249Z,98583.95
2018-06-17T01:23:41.228Z,98591.02
2018-06-17T01:26:10.524Z,98589.76
2018-06-17T01:28:40.320Z,98582.14
2018-06-17T01:31:09.327Z,98581.02
2018-06-17T01:33:38.504Z,98579.20
2018-06-17T01:36:07.515Z,98578.63
2018-06-17T01:38:36.543Z,98582.41
2018-06-17T01:41:05.701Z,98584.27
2018-06-17T01:43:34.795Z,98589.28
2018-06-17T01:46:03.846Z,98595.91
2018-06-17T01:48:32.816Z,98599.73
2018-06-17T01:51:01.807Z,98598.31
2018-06-17T01:53:30.816Z,98589.48
2018-06-17T01:55:59.783Z,98597.86
2018-06-17T01:58:28.764Z,98591.97
2018-06-17T02:00:57.755Z,98595.09
2018-06-17T02:03:31.887Z,98594.45
2018-06-17T02:06:05.772Z,98594.27
2018-06-17T02:10:45.599Z,98587.88
2018-06-17T02:13:14.615Z,98595.81
2018-06-17T02:15:43.666Z,98588.30
2018-06-17T02:18:12.971Z,98593.26
2018-06-17T02:20:42.036Z,98588.05
2018-06-17T02:23:11.092Z,98595.93
2018-06-17T02:25:40.144Z,98587.44
2018-06-17T02:28:09.172Z,98476.09
2018-06-17T02:30:38.281Z,98583.42
2018-06-17T02:33:07.399Z,98587.22
2018-06-17T02:35:36.437Z,98583.23
2018-06-17T02:38:05.546Z,98584.73
2018-06-17T02:40:34.577Z,98589.99
2018-06-17T02:43:03.617Z,98586.58
2018-06-17T02:45:37.720Z,98591.60
2018-06-17T02:48:11.696Z,98590.66
2018-06-17T02:50:45.776Z,98599.67
2018-06-17T02:53:19.765Z,98596.52
2018-06-17T02:55:48.851Z,98597.28
2018-06-17T02:58:17.896Z,98601.48
2018-06-17T03:00:46.938Z,98599.00
2018-06-17T03:03:15.972Z,98595.06
2018-06-17T03:05:44.985Z,98591.73
2018-06-17T03:08:14.021Z,98584.97
2018-06-17T03:10:43.049Z,98592.43
2018-06-17T03:13:12.193Z,98593.38
2018-06-17T03:15:41.218Z,98587.11
2018-06-17T03:18:10.296Z,98587.22
2018-06-17T03:20:39.373Z,98592.25
2018-06-17T03:23:08.435Z,98590.44
2018-06-17T03:25:42.653Z,98593.11
2018-06-17T03:28:16.796Z,98588.45
2018-06-17T03:30:51.129Z,98590.33
2018-06-17T03:33:25.237Z,98592.15
2018-06-17T03:35:59.221Z,98597.80
2018-06-17T03:38:28.280Z,98589.84
2018-06-17T03:40:57.350Z,98589.76
2018-06-17T03:43:26.376Z,98587.52
2018-06-17T03:45:55.465Z,98587.06
2018-06-17T03:48:24.488Z,98587.80
2018-06-17T03:50:53.532Z,98584.53
2018-06-17T03:53:22.553Z,98581.82
2018-06-17T03:55:51.653Z,98582.88
2018-06-17T03:58:20.673Z,98580.80
2018-06-17T04:00:49.685Z,98582.80
2018-06-17T04:03:18.724Z,98583.20
2018-06-17T04:05:47.825Z,98579.05
2018-06-17T04:08:16.868Z,98586.27
2018-06-17T04:10:45.909Z,98588.97
2018-06-17T04:13:14.948Z,98588.39
2018-06-17T04:15:43.979Z,98591.16
2018-06-17T04:18:13.016Z,98583.00
2018-06-17T04:20:42.048Z,98585.73
2018-06-17T04:23:11.260Z,98593.77
2018-06-17T04:25:40.451Z,98592.75
2018-06-17T04:28:09.479Z,98599.24
2018-06-17T04:30:38.518Z,98599.64
2018-06-17T04:33:07.551Z,98605.04
2018-06-17T04:35:36.693Z,98607.58
2018-06-17T04:38:05.786Z,98605.67
2018-06-17T04:40:34.820Z,98609.56
2018-06-17T04:43:03.941Z,98608.67
2018-06-17T04:45:33.064Z,98612.23
2018-06-17T04:48:02.105Z,98612.16
2018-06-17T04:50:31.133Z,98616.34
2018-06-17T04:53:00.220Z,98611.67
2018-06-17T04:55:29.249Z,98624.61
2018-06-17T04:57:58.294Z,98630.24
2018-06-17T05:00:27.393Z,98625.23
2018-06-17T05:02:56.440Z,98629.72
2018-06-17T05:05:25.476Z,98628.56
2018-06-17T05:07:54.604Z,98630.08
2018-06-17T05:10:23.683Z,98645.13
2018-06-17T05:12:52.793Z,98639.48
2018-06-17T05:15:21.813Z,98642.45
2018-06-17T05:17:50.836Z,98643.61
2018-06-17T05:20:19.976Z,98644.05
2018-06-17T05:22:48.997Z,98642.77
2018-06-17T05:25:18.045Z,98638.88
2018-06-17T05:27:47.136Z,98648.03
2018-06-17T05:30:16.225Z,98653.79
2018-06-17T05:32:45.496Z,98659.09
2018-06-17T05:35:14.748Z,98664.69
2018-06-17T05:37:44.144Z,98666.63
2018-06-17T05:40:13.448Z,98666.11
2018-06-17T05:42:42.673Z,98662.84
2018-06-17T05:45:11.918Z,98659.12
2018-06-17T05:47:41.334Z,98665.65
2018-06-17T05:50:10.748Z,98672.69
2018-06-17T05:52:40.196Z,98669.86
2018-06-17T05:55:09.509Z,98674.42
2018-06-17T05:57:38.840Z,98671.09
2018-06-17T06:00:07.960Z,98666.92
2018-06-17T06:02:37.047Z,98666.61
2018-06-17T06:05:06.473Z,98669.05
2018-06-17T06:07:35.501Z,98668.84
2018-06-17T06:10:04.810Z,98668.97
2018-06-17T06:12:33.841Z,98670.39
2018-06-17T06:15:02.848Z,98677.91
2018-06-17T06:17:31.956Z,98672.75
2018-06-17T06:20:01.238Z,98672.63
2018-06-17T06:22:30.650Z,98673.74
2018-06-17T06:25:00.102Z,98674.65
2018-06-17T06:27:29.404Z,98669.56
2018-06-17T06:29:58.557Z,98670.75
2018-06-17T06:32:27.569Z,98667.06
2018-06-17T06:34:56.609Z,98659.89
2018-06-17T06:37:25.689Z,98662.28
2018-06-17T06:39:54.840Z,98657.53
2018-06-17T06:42:24.140Z,98654.97
2018-06-17T06:44:54.493Z,98656.08
2018-06-17T06:47:23.596Z,98653.80
2018-06-17T06:49:53.116Z,98654.92
2018-06-17T06:52:22.131Z,98652.84
2018-06-17T06:54:51.392Z,98650.70
2018-06-17T06:57:20.711Z,98648.62
2018-06-17T06:59:50.110Z,98647.89
2018-06-17T07:02:30.389Z,98649.32
2018-06-17T07:05:10.455Z,98646.50
2018-06-17T07:07:50.672Z,98649.27
2018-06-17T07:10:28.841Z,98650.02
2018-06-17T07:12:58.199Z,98645.69
2018-06-17T07:15:39.086Z,98653.58
2018-06-17T07:18:18.875Z,98648.95
2018-06-17T07:20:48.189Z,98651.06
2018-06-17T07:23:17.512Z,98647.61
2018-06-17T07:26:55.948Z,98647.46
2018-06-17T07:29:37.111Z,98645.40
2018-06-17T07:32:06.645Z,98641.13
2018-06-17T07:34:36.240Z,98643.56
2018-06-17T07:37:05.670Z,98650.09
2018-06-17T07:41:43.578Z,98647.20
2018-06-17T07:44:12.934Z,98645.55
2018-06-17T07:46:42.426Z,98646.53
2018-06-17T07:49:34.637Z,98647.06
2018-06-17T07:52:15.918Z,98648.42
2018-06-17T07:54:45.686Z,98641.16
2018-06-17T07:57:16.056Z,98643.81
2018-06-17T07:59:45.500Z,98642.33
2018-06-17T08:02:15.292Z,98637.75
2018-06-17T08:04:44.594Z,98635.09
2018-06-17T08:07:13.837Z,98636.32
2018-06-17T08:09:43.406Z,98632.30
2018-06-17T08:12:13.296Z,98631.62
2018-06-17T08:14:42.673Z,98626.85
2018-06-17T08:17:12.168Z,98627.20
2018-06-17T08:19:42.044Z,98625.61
2018-06-17T08:22:11.531Z,98627.34
2018-06-17T08:24:40.891Z,98625.17
2018-06-17T08:27:10.256Z,98621.80
2018-06-17T08:29:39.431Z,98621.31
2018-06-17T08:32:08.647Z,98623.88
2018-06-17T08:34:37.918Z,98612.17
2018-06-17T08:37:07.223Z,98610.87
2018-06-17T08:39:36.574Z,98613.45
2018-06-17T08:42:05.735Z,98610.62
2018-06-17T08:44:35.040Z,98612.03
2018-06-17T08:47:04.236Z,98611.11
2018-06-17T08:49:33.617Z,98616.50
2018-06-17T08:52:02.987Z,98615.81
2018-06-17T08:54:32.335Z,98615.38
2018-06-17T08:57:01.516Z,98610.08
2018-06-17T08:59:31.038Z,98611.52
2018-06-17T09:02:00.419Z,98609.63
2018-06-17T09:04:29.834Z,98610.22
2018-06-17T09:06:59.123Z,98609.76
2018-06-17T09:09:28.492Z,98607.02
2018-06-17T09:11:57.813Z,98603.58
2018-06-17T09:14:27.247Z,98602.58
2018-06-17T09:16:56.591Z,98605.12
2018-06-17T09:19:25.915Z,98600.89
2018-06-17T09:21:55.184Z,98601.52
2018-06-17T09:24:24.519Z,98605.64
2018-06-17T09:26:53.826Z,98596.58
2018-06-17T09:29:23.271Z,98595.92
2018-06-17T09:31:52.672Z,98595.90
2018-06-17T09:34:21.997Z,98590.29
2018-06-17T09:36:50.964Z,98591.45
2018-06-17T09:39:20.095Z,98591.78
2018-06-17T09:41:49.290Z,98589.98
2018-06-17T09:44:18.657Z,98585.24
2018-06-17T09:46:47.865Z,98584.73
2018-06-17T09:49:17.076Z,98575.94
2018-06-17T09:51:46.178Z,98572.87
2018-06-17T09:54:15.405Z,98573.22
2018-06-17T09:56:44.806Z,98570.54
2018-06-17T09:59:14.134Z,98569.11
2018-06-17T10:01:43.464Z,98570.37
2018-06-17T10:04:12.792Z,98564.38
2018-06-17T10:06:41.940Z,98567.87
2018-06-17T10:09:11.893Z,98560.41
2018-06-17T10:11:41.154Z,98553.80
2018-06-17T10:14:10.403Z,98548.86
2018-06-17T10:16:39.736Z,98543.60
2018-06-17T10:19:09.078Z,98550.52
2018-06-17T10:21:38.383Z,98546.37
2018-06-17T10:24:07.736Z,98545.03
2018-06-17T10:26:37.019Z,98538.67
2018-06-17T10:29:06.172Z,98538.95
2018-06-17T10:31:35.518Z,98536.37
2018-06-17T10:34:04.827Z,98536.86
2018-06-17T10:36:34.127Z,98530.48
2018-06-17T10:39:03.536Z,98534.05
2018-06-17T10:41:32.659Z,98532.88
2018-06-17T10:44:05.372Z,98527.55
2018-06-17T10:46:34.849Z,98522.20
2018-06-17T10:49:04.247Z,98521.11
2018-06-17T10:51:33.889Z,98519.62
2018-06-17T10:54:04.965Z,98521.12
2018-06-17T10:56:34.349Z,98513.20
2018-06-17T10:59:03.684Z,98511.59
2018-06-17T11:01:32.896Z,98504.36
2018-06-17T11:04:02.143Z,98495.56
2018-06-17T11:06:31.436Z,98492.95
2018-06-17T11:09:00.708Z,98493.54
2018-06-17T11:11:30.088Z,98484.07
2018-06-17T11:13:59.384Z,98481.39
2018-06-17T11:16:28.475Z,98485.42
2018-06-17T11:18:57.536Z,98487.59
2018-06-17T11:21:26.678Z,98469.63
2018-06-17T11:23:55.716Z,98470.95
2018-06-17T11:26:25.219Z,98477.13
2018-06-17T11:28:54.742Z,98471.57
2018-06-17T11:31:23.901Z,98467.81
2018-06-17T11:33:53.220Z,98465.38
2018-06-17T11:36:22.692Z,98465.41
2018-06-17T11:38:51.981Z,98463.28
2018-06-17T11:41:21.221Z,98467.83
2018-06-17T11:43:50.467Z,98459.22
2018-06-17T11:46:19.777Z,98453.59
2018-06-17T11:48:49.113Z,98459.22
2018-06-17T11:51:18.320Z,98456.77
2018-06-17T11:53:47.588Z,98456.74
2018-06-17T11:56:16.788Z,98455.73
2018-06-17T11:58:47.330Z,98454.65
2018-06-17T12:01:16.444Z,98448.17
2018-06-17T12:03:45.765Z,98453.02
2018-06-17T12:06:14.984Z,98446.08
2018-06-17T12:08:44.193Z,98443.67
2018-06-17T12:11:13.693Z,98437.49
2018-06-17T12:13:43.116Z,98435.88
2018-06-17T12:16:12.421Z,98437.77
2018-06-17T12:18:42.104Z,98431.61
2018-06-17T12:21:11.145Z,98434.59
2018-06-17T12:23:40.392Z,98426.55
2018-06-17T12:26:09.635Z,98428.95
2018-06-17T12:28:38.975Z,98431.64
2018-06-17T12:31:08.380Z,98423.84
2018-06-17T12:33:37.328Z,98421.91
2018-06-17T12:36:08.881Z,98425.65
2018-06-17T12:38:38.112Z,98422.22
2018-06-17T12:41:07.415Z,98423.53
2018-06-17T12:43:36.939Z,98420.11
2018-06-17T12:46:06.504Z,98410.98
2018-06-17T12:48:36.133Z,98411.80
2018-06-17T12:51:05.396Z,98416.36
2018-06-17T12:53:34.648Z,98415.24
2018-06-17T12:56:03.684Z,98405.05
2018-06-17T12:58:33.053Z,98397.51
2018-06-17T13:01:02.304Z,98389.12
2018-06-17T13:03:31.603Z,98383.17
2018-06-17T13:06:00.848Z,98386.65
2018-06-17T13:08:32.710Z,98388.58
2018-06-17T13:11:02.113Z,98383.20
2018-06-17T13:13:31.321Z,98381.84
2018-06-17T13:16:00.461Z,98378.57
2018-06-17T13:18:29.743Z,98383.97
2018-06-17T13:20:58.972Z,98381.75
2018-06-17T13:23:28.263Z,98382.79
2018-06-17T13:25:57.668Z,98376.36
2018-06-17T13:28:27.101Z,98387.82
2018-06-17T13:30:56.273Z,98380.44
2018-06-17T13:33:25.671Z,98385.64
2018-06-17T13:35:54.920Z,98384.14
2018-06-17T13:38:24.151Z,98391.08
2018-06-17T13:40:53.388Z,98386.73
2018-06-17T13:43:22.564Z,98390.74
2018-06-17T13:45:51.857Z,98381.12
2018-06-17T13:48:21.120Z,98377.95
2018-06-17T13:50:50.488Z,98375.07
2018-06-17T13:53:19.933Z,98371.35
2018-06-17T13:55:49.257Z,98375.91
2018-06-17T13:58:18.296Z,98372.17
2018-06-17T14:00:47.837Z,98371.89
2018-06-17T14:03:16.823Z,98370.02
2018-06-17T14:05:45.887Z,98371.90
2018-06-17T14:08:15.103Z,98381.20
2018-06-17T14:10:44.072Z,98383.88
2018-06-17T14:13:13.316Z,98382.88
2018-06-17T14:15:42.277Z,98375.38
2018-06-17T14:18:11.301Z,98380.47
2018-06-17T14:20:40.313Z,98374.30
2018-06-17T14:23:09.416Z,98373.49
2018-06-17T14:25:38.406Z,98370.23
2018-06-17T14:28:07.469Z,98375.53
2018-06-17T14:30:36.482Z,98385.40
2018-06-17T14:33:05.512Z,98383.23
2018-06-17T14:35:34.483Z,98384.75
2018-06-17T14:38:03.552Z,98380.43
2018-06-17T14:40:39.552Z,98376.33
2018-06-17T14:43:13.481Z,98378.64
2018-06-17T14:45:47.557Z,98381.16
2018-06-17T14:48:21.514Z,98376.30
2018-06-17T14:50:55.732Z,98370.09
2018-06-17T14:53:24.680Z,98363.57
2018-06-17T14:55:53.659Z,98373.44
2018-06-17T14:58:22.720Z,98372.78
2018-06-17T15:00:51.763Z,98374.58
2018-06-17T15:03:20.787Z,98367.85
2018-06-17T15:05:49.827Z,98369.89
2018-06-17T15:08:18.791Z,98369.59
2018-06-17T15:10:47.808Z,98373.84
2018-06-17T15:13:16.820Z,98370.91
2018-06-17T15:15:45.849Z,98373.73
2018-06-17T15:18:14.861Z,98377.73
2018-06-17T15:20:43.829Z,98378.24
2018-06-17T15:23:12.812Z,98374.66
2018-06-17T15:25:41.904Z,98370.95
2018-06-17T15:28:10.897Z,98366.45
2018-06-17T15:30:39.903Z,98373.63
2018-06-17T15:33:13.975Z,98379.63
2018-06-17T15:35:48.189Z,98386.61
2018-06-17T15:38:22.357Z,98388.67
2018-06-17T15:40:56.463Z,98393.92
2018-06-17T15:43:25.824Z,98399.94
2018-06-17T15:45:54.964Z,98405.73
2018-06-17T15:48:23.996Z,98398.05
2018-06-17T15:50:52.974Z,98406.28
2018-06-17T15:53:21.970Z,98395.55
2018-06-17T15:55:50.964Z,98401.63
2018-06-17T15:58:19.996Z,98416.19
2018-06-17T16:00:49.005Z,98414.42
2018-06-17T16:03:18.056Z,98422.08
2018-06-17T16:05:47.093Z,98417.40
2018-06-17T16:08:16.138Z,98421.78
2018-06-17T16:10:45.112Z,98420.61
2018-06-17T16:13:19.117Z,98415.98
2018-06-17T16:15:53.009Z,98421.30
2018-06-17T16:18:27.101Z,98426.80
2018-06-17T16:21:01.920Z,98430.87
2018-06-17T16:23:31.891Z,98436.16
2018-06-17T16:26:00.894Z,98437.39
2018-06-17T16:28:29.856Z,98441.45
2018-06-17T16:30:58.846Z,98438.78
2018-06-17T16:33:27.908Z,98432.45
2018-06-17T16:35:56.895Z,98428.80
2018-06-17T16:38:25.877Z,98430.97
2018-06-17T16:40:54.919Z,98436.64
2018-06-17T16:43:23.966Z,98438.83
2018-06-17T16:45:53.033Z,98441.59
2018-06-17T16:48:21.983Z,98434.97
2018-06-17T16:50:56.031Z,98439.77
2018-06-17T16:53:30.099Z,98444.16
2018-06-17T16:56:04.268Z,98449.09
2018-06-17T16:58:38.396Z,98455.47
2018-06-17T17:01:07.715Z,98451.13
2018-06-17T17:03:36.743Z,98453.63
2018-06-17T17:06:05.752Z,98457.00
2018-06-17T17:08:34.735Z,98466.61
2018-06-17T17:11:04.158Z,98473.24
2018-06-17T17:13:33.563Z,98465.78
2018-06-17T17:16:02.911Z,98470.84
2018-06-17T17:18:32.233Z,98467.55
2018-06-17T17:21:01.577Z,98478.69
2018-06-17T17:23:32.093Z,98476.97
2018-06-17T17:26:01.233Z,98476.43
2018-06-17T17:28:30.476Z,98473.69
2018-06-17T17:30:59.767Z,98477.41
2018-06-17T17:33:34.189Z,98481.00
2018-06-17T17:36:08.552Z,98482.55
2018-06-17T17:38:42.781Z,98484.72
2018-06-17T17:41:12.113Z,98484.89
2018-06-17T17:43:41.372Z,98482.75
2018-06-17T17:46:15.605Z,98484.36
2018-06-17T17:48:44.644Z,98490.39
2018-06-17T17:51:13.911Z,98492.71
2018-06-17T17:53:43.261Z,98486.95
2018-06-17T17:56:12.504Z,98480.61
2018-06-17T17:58:41.792Z,98477.90
2018-06-17T18:01:11.157Z,98481.23
2018-06-17T18:03:40.498Z,98487.41
2018-06-17T18:06:09.701Z,98487.16
2018-06-17T18:08:39.093Z,98493.94
2018-06-17T18:11:08.358Z,98497.84
2018-06-17T18:13:37.651Z,98502.58
2018-06-17T18:16:06.626Z,98507.80
2018-06-17T18:18:37.607Z,98505.59
2018-06-17T18:21:07.406Z,98506.86
2018-06-17T18:23:36.678Z,98506.77
2018-06-17T18:26:10.909Z,98504.69
2018-06-17T18:28:45.136Z,98505.48
2018-06-17T18:31:14.417Z,98510.72
2018-06-17T18:33:48.697Z,98505.04
2018-06-17T18:36:18.107Z,98507.75
2018-06-17T18:38:47.937Z,98499.08
2018-06-17T18:41:17.398Z,98509.06
2018-06-17T18:43:46.720Z,98516.62
2018-06-17T18:46:15.704Z,98521.75
2018-06-17T18:48:45.020Z,98527.75
2018-06-17T18:51:14.384Z,98534.20
2018-06-17T18:53:43.612Z,98532.25
2018-06-17T18:56:13.010Z,98531.89
2018-06-17T18:58:42.334Z,98532.83
2018-06-17T19:01:11.620Z,98531.11
2018-06-17T19:03:40.735Z,98556.17
2018-06-17T19:06:09.957Z,98564.96
2018-06-17T19:08:44.253Z,98562.46
2018-06-17T19:11:18.450Z,98559.95
2018-06-17T19:13:52.688Z,98553.27
2018-06-17T19:16:26.930Z,98555.27
2018-06-17T19:18:56.433Z,98550.95
2018-06-17T19:21:25.725Z,98553.59
2018-06-17T19:23:54.900Z,98546.09
2018-06-17T19:26:24.250Z,98560.92
2018-06-17T19:28:53.487Z,98551.77
2018-06-17T19:31:22.917Z,98550.66
2018-06-17T19:33:52.164Z,98550.02
2018-06-17T19:36:21.462Z,98555.02
2018-06-17T19:38:50.716Z,98549.30
2018-06-17T19:41:19.960Z,98547.98
2018-06-17T19:43:49.166Z,98538.62
2018-06-17T19:46:18.357Z,98544.48
2018-06-17T19:48:47.531Z,98541.16
2018-06-17T19:51:21.688Z,98550.80
2018-06-17T19:53:55.991Z,98546.80
2018-06-17T19:56:30.248Z,98554.55
2018-06-17T19:59:04.441Z,98554.40
2018-06-17T20:01:33.773Z,98557.62
2018-06-17T20:04:03.021Z,98559.34
2018-06-17T20:06:32.372Z,98562.88
2018-06-17T20:09:01.485Z,98561.08
2018-06-17T20:11:30.812Z,98562.80
2018-06-17T20:14:00.069Z,98558.23
2018-06-17T20:16:29.240Z,98555.72
2018-06-17T20:18:58.461Z,98560.72
2018-06-17T20:21:27.616Z,98559.92
2018-06-17T20:23:56.743Z,98564.18
2018-06-17T20:26:25.836Z,98564.73
2018-06-17T20:28:55.069Z,98567.02
2018-06-17T20:31:24.280Z,98559.94
2018-06-17T20:36:04.899Z,98568.58
2018-06-17T20:38:39.069Z,98567.64
2018-06-17T20:41:12.959Z,98573.14
2018-06-17T20:43:48.220Z,98566.86
2018-06-17T20:46:17.669Z,98565.63
2018-06-17T20:48:47.636Z,98567.78
2018-06-17T20:51:16.816Z,98570.50
2018-06-17T20:53:46.083Z,98580.86
2018-06-17T20:56:15.507Z,98584.13
2018-06-17T20:58:44.600Z,98594.41
2018-06-17T21:01:13.876Z,98598.17
2018-06-17T21:03:43.093Z,98587.12
2018-06-17T21:06:12.321Z,98583.86
2018-06-17T21:08:41.533Z,98591.99
2018-06-17T21:11:10.868Z,98586.01
2018-06-17T21:13:40.163Z,98585.80
2018-06-17T21:16:09.515Z,98585.60
2018-06-17T21:18:43.396Z,98590.80
2018-06-17T21:21:17.469Z,98593.64
2018-06-17T21:23:51.408Z,98585.81
2018-06-17T21:26:25.451Z,98591.00
2018-06-17T21:28:54.575Z,98586.92
2018-06-17T21:31:23.547Z,98587.34
2018-06-17T21:33:52.560Z,98588.45
2018-06-17T21:36:21.541Z,98593.52
2018-06-17T21:38:50.495Z,98597.19
2018-06-17T21:41:19.535Z,98596.38
2018-06-17T21:43:48.544Z,98592.82
2018-06-17T21:46:17.536Z,98590.27
2018-06-17T21:48:46.577Z,98581.32
2018-06-17T21:51:15.533Z,98583.55
2018-06-17T21:53:44.660Z,98586.39
2018-06-17T21:56:13.780Z,98579.62
2018-06-17T21:58:47.756Z,98580.53
2018-06-17T22:01:17.557Z,98579.50
2018-06-17T22:03:46.998Z,98583.25
2018-06-17T22:06:16.176Z,98585.81
2018-06-17T22:08:50.112Z,98587.22
2018-06-17T22:11:24.044Z,98588.24
2018-06-17T22:13:58.144Z,98583.67
2018-06-17T22:16:32.140Z,98587.83
2018-06-17T22:19:01.209Z,98585.39
2018-06-17T22:21:30.256Z,98592.41
2018-06-17T22:23:59.388Z,98594.42
2018-06-17T22:26:28.376Z,98594.83
2018-06-17T22:28:57.409Z,98583.27
2018-06-17T22:31:26.380Z,98586.82
2018-06-17T22:33:55.497Z,98586.61
2018-06-17T22:36:24.476Z,98587.42
2018-06-17T22:38:53.539Z,98584.36
2018-06-17T22:41:22.832Z,98588.52
2018-06-17T22:43:51.776Z,98586.52
2018-06-17T22:46:20.813Z,98581.03
2018-06-17T22:48:49.776Z,98576.16
2018-06-17T22:51:18.764Z,98579.30
2018-06-17T22:53:58.691Z,98582.55
2018-06-17T22:56:32.708Z,98579.98
2018-06-17T22:59:06.659Z,98583.73
2018-06-17T23:01:40.603Z,98583.55
2018-06-17T23:04:14.837Z,98580.91
2018-06-17T23:06:49.163Z,98582.81
2018-06-17T23:09:23.424Z,98569.04
2018-06-17T23:11:52.771Z,98575.22
2018-06-17T23:14:22.075Z,98567.01
2018-06-17T23:16:51.330Z,98566.89
2018-06-17T23:19:20.537Z,98567.89
2018-06-17T23:21:49.828Z,98568.50
2018-06-17T23:24:19.081Z,98563.87
2018-06-17T23:26:48.241Z,98561.34
2018-06-17T23:29:17.340Z,98571.06
2018-06-17T23:31:46.568Z,98561.21
2018-06-17T23:34:15.776Z,98561.23
2018-06-17T23:36:45.012Z,98557.03
2018-06-17T23:39:14.211Z,98548.10
2018-06-17T23:41:43.363Z,98548.10
2018-06-17T23:44:12.576Z,98544.52
2018-06-17T23:46:46.632Z,98540.27
2018-06-17T23:49:20.644Z,98544.61
2018-06-17T23:51:54.680Z,98549.36
2018-06-17T23:54:28.628Z,98546.08
2018-06-17T23:56:57.755Z,98539.89
2018-06-17T23:59:26.715Z,98535.64
